Time,TemperatureF,DewpointF,PressureIn,WindDirection,WindDirectionDegrees,WindSpeedMPH,WindSpeedGustMPH,Humidity,HourlyPrecipIn,Conditions,Clouds,dailyrainin,SoftwareType,DateUTC
2013-12-07 00:01:00,37.9,37.2,30.09,NW,321,4.0,10.0,97,0.07,,,0.37,meteohub,2013-12-07 05:01:00,
2013-12-07 00:02:00,37.9,37.2,30.09,North,5,6.0,10.0,97,0.07,,,0.37,meteohub,2013-12-07 05:02:00,
2013-12-07 00:07:00,37.9,37.4,30.11,NW,322,5.0,10.0,98,0.07,,,0.00,meteohub,2013-12-07 05:07:00,
2013-12-07 00:12:00,37.9,37.4,30.11,NNW,345,3.0,10.0,98,0.08,,,0.01,meteohub,2013-12-07 05:12:00,
2013-12-07 00:17:00,37.9,37.4,30.10,NNW,333,5.0,12.0,98,0.08,,,0.02,meteohub,2013-12-07 05:17:00,
2013-12-07 00:22:00,37.8,37.2,30.10,NNW,347,11.0,12.0,98,0.09,,,0.04,meteohub,2013-12-07 05:22:00,
2013-12-07 00:27:00,37.8,37.0,30.11,NNW,345,6.0,12.0,97,0.09,,,0.05,meteohub,2013-12-07 05:27:00,
2013-12-07 00:32:00,37.8,37.0,30.11,NNW,342,11.0,11.0,97,0.09,,,0.06,meteohub,2013-12-07 05:32:00,
2013-12-07 00:37:00,37.6,36.9,30.09,North,11,5.0,14.0,97,0.08,,,0.06,meteohub,2013-12-07 05:37:00,
2013-12-07 00:42:00,37.6,36.9,30.09,NNW,342,3.0,14.0,97,0.08,,,0.07,meteohub,2013-12-07 05:42:00,
2013-12-07 00:47:00,37.6,36.9,30.09,North,0,4.0,14.0,97,0.08,,,0.07,meteohub,2013-12-07 05:47:00,
2013-12-07 00:52:00,37.6,36.9,30.10,NNE,22,7.0,13.0,97,0.08,,,0.08,meteohub,2013-12-07 05:52:00,
2013-12-07 00:57:00,37.6,36.9,30.11,NNW,346,6.0,13.0,97,0.09,,,0.09,meteohub,2013-12-07 05:57:00,
2013-12-07 01:02:00,37.6,36.9,30.12,NNW,340,7.0,11.0,97,0.10,,,0.10,meteohub,2013-12-07 06:02:00,
2013-12-07 01:07:00,37.4,36.7,30.11,NNW,332,7.0,10.0,97,0.12,,,0.12,meteohub,2013-12-07 06:07:00,
2013-12-07 01:12:00,37.2,36.5,30.10,North,352,5.0,11.0,97,0.12,,,0.13,meteohub,2013-12-07 06:12:00,
2013-12-07 01:17:00,37.0,36.3,30.09,NNE,15,7.0,12.0,97,0.11,,,0.14,meteohub,2013-12-07 06:17:00,
2013-12-07 01:22:00,37.0,36.3,30.07,NW,325,7.0,12.0,97,0.10,,,0.15,meteohub,2013-12-07 06:22:00,
2013-12-07 01:27:00,36.9,36.1,30.11,NNE,16,11.0,13.0,97,0.13,,,0.18,meteohub,2013-12-07 06:27:00,
2013-12-07 01:32:00,36.9,36.1,30.12,NW,324,7.0,17.0,97,0.13,,,0.19,meteohub,2013-12-07 06:32:00,
2013-12-07 01:37:00,36.9,36.1,30.10,North,356,3.0,17.0,97,0.15,,,0.21,meteohub,2013-12-07 06:37:00,
2013-12-07 01:42:00,36.7,36.0,30.10,NW,311,1.0,17.0,97,0.16,,,0.22,meteohub,2013-12-07 06:42:00,
2013-12-07 01:47:00,36.7,36.0,30.10,NNE,18,4.0,12.0,97,0.16,,,0.24,meteohub,2013-12-07 06:47:00,
2013-12-07 01:52:00,36.7,36.0,30.09,ENE,60,4.0,12.0,97,0.16,,,0.25,meteohub,2013-12-07 06:52:00,
2013-12-07 01:57:00,36.7,36.0,30.09,NE,45,6.0,9.0,97,0.15,,,0.25,meteohub,2013-12-07 06:57:00,
2013-12-07 02:02:00,36.5,35.8,30.09,NE,37,6.0,10.0,97,0.15,,,0.26,meteohub,2013-12-07 07:02:00,
2013-12-07 02:07:00,36.3,35.6,30.09,NNW,343,5.0,12.0,97,0.14,,,0.26,meteohub,2013-12-07 07:07:00,
2013-12-07 02:12:00,36.3,35.6,30.09,North,0,5.0,12.0,97,0.13,,,0.26,meteohub,2013-12-07 07:12:00,
2013-12-07 02:17:00,36.3,35.6,30.09,NNE,23,2.0,12.0,97,0.12,,,0.26,meteohub,2013-12-07 07:17:00,
2013-12-07 02:22:00,36.3,35.6,30.09,NNE,20,1.0,9.0,97,0.10,,,0.26,meteohub,2013-12-07 07:22:00,
2013-12-07 02:27:00,36.3,35.6,30.09,North,8,4.0,9.0,97,0.08,,,0.26,meteohub,2013-12-07 07:27:00,
2013-12-07 02:32:00,36.3,35.6,30.09,North,356,9.0,9.0,97,0.07,,,0.26,meteohub,2013-12-07 07:32:00,
2013-12-07 02:37:00,36.3,35.6,30.09,NNW,348,3.0,9.0,97,0.05,,,0.26,meteohub,2013-12-07 07:37:00,
2013-12-07 02:42:00,36.3,35.6,30.10,North,9,4.0,9.0,97,0.03,,,0.26,meteohub,2013-12-07 07:42:00,
2013-12-07 02:47:00,36.3,35.6,30.09,NNW,340,3.0,9.0,97,0.02,,,0.26,meteohub,2013-12-07 07:47:00,
2013-12-07 02:52:00,36.3,35.6,30.09,NNE,20,3.0,7.0,97,0.01,,,0.26,meteohub,2013-12-07 07:52:00,
2013-12-07 02:57:00,36.3,35.6,30.09,NNE,33,4.0,7.0,97,0.01,,,0.26,meteohub,2013-12-07 07:57:00,
2013-12-07 03:02:00,36.3,35.6,30.08,NNW,330,0.0,7.0,97,0.00,,,0.26,meteohub,2013-12-07 08:02:00,
2013-12-07 03:07:00,36.3,35.6,30.09,NNW,338,3.0,7.0,97,0.00,,,0.26,meteohub,2013-12-07 08:07:00,
2013-12-07 03:12:00,36.1,35.4,30.10,NNW,348,4.0,6.0,97,0.00,,,0.26,meteohub,2013-12-07 08:12:00,
2013-12-07 03:17:00,36.1,35.4,30.13,NW,316,4.0,7.0,97,0.00,,,0.26,meteohub,2013-12-07 08:17:00,
2013-12-07 03:22:00,36.3,35.6,30.16,NW,312,4.0,12.0,97,0.00,,,0.26,meteohub,2013-12-07 08:22:00,
2013-12-07 03:27:00,36.1,35.1,30.14,North,357,7.0,12.0,96,0.00,,,0.26,meteohub,2013-12-07 08:27:00,
2013-12-07 03:32:00,36.0,34.9,30.13,NNW,333,6.0,12.0,96,0.00,,,0.26,meteohub,2013-12-07 08:32:00,
2013-12-07 03:37:00,36.0,34.9,30.15,NNW,339,6.0,13.0,96,0.00,,,0.26,meteohub,2013-12-07 08:37:00,
2013-12-07 03:42:00,35.8,35.1,30.15,NNW,336,2.0,14.0,97,0.00,,,0.26,meteohub,2013-12-07 08:42:00,
2013-12-07 03:47:00,35.6,34.9,30.14,NNE,27,4.0,14.0,97,0.00,,,0.26,meteohub,2013-12-07 08:47:00,
2013-12-07 03:52:00,35.4,34.7,30.17,NNW,346,5.0,14.0,97,0.00,,,0.26,meteohub,2013-12-07 08:52:00,
2013-12-07 03:57:00,35.4,34.7,30.16,NNW,328,3.0,13.0,97,0.00,,,0.26,meteohub,2013-12-07 08:57:00,
2013-12-07 04:02:00,35.4,34.7,30.14,North,355,3.0,9.0,97,0.00,,,0.26,meteohub,2013-12-07 09:02:00,
2013-12-07 04:07:00,35.4,34.9,30.15,NNE,23,2.0,9.0,98,0.00,,,0.26,meteohub,2013-12-07 09:07:00,
2013-12-07 04:12:00,35.4,34.9,30.14,North,352,4.0,6.0,98,0.00,,,0.26,meteohub,2013-12-07 09:12:00,
2013-12-07 04:17:00,35.4,34.9,30.13,North,359,6.0,9.0,98,0.00,,,0.26,meteohub,2013-12-07 09:17:00,
2013-12-07 04:23:00,35.4,34.9,30.14,NNW,340,4.0,9.0,98,0.00,,,0.26,meteohub,2013-12-07 09:23:00,
2013-12-07 04:28:00,35.4,34.9,30.14,North,350,5.0,9.0,98,0.00,,,0.26,meteohub,2013-12-07 09:28:00,
2013-12-07 04:33:00,35.4,34.9,30.15,NW,318,5.0,8.0,98,0.00,,,0.26,meteohub,2013-12-07 09:33:00,
2013-12-07 04:38:00,35.4,34.9,30.14,North,352,2.0,8.0,98,0.00,,,0.26,meteohub,2013-12-07 09:38:00,
2013-12-07 04:43:00,35.4,34.9,30.14,NNW,342,7.0,8.0,98,0.00,,,0.26,meteohub,2013-12-07 09:43:00,
2013-12-07 04:48:00,35.4,34.9,30.15,North,354,7.0,9.0,98,0.00,,,0.26,meteohub,2013-12-07 09:48:00,
2013-12-07 04:53:00,35.4,34.9,30.15,NNW,334,3.0,11.0,98,0.00,,,0.26,meteohub,2013-12-07 09:53:00,
2013-12-07 04:58:00,35.4,34.9,30.14,NW,311,5.0,11.0,98,0.00,,,0.26,meteohub,2013-12-07 09:58:00,
2013-12-07 05:03:00,35.4,34.9,30.14,NNW,340,4.0,10.0,98,0.00,,,0.26,meteohub,2013-12-07 10:03:00,
2013-12-07 05:08:00,35.4,34.9,30.14,NE,39,5.0,9.0,98,0.00,,,0.26,meteohub,2013-12-07 10:08:00,
2013-12-07 05:13:00,35.4,34.9,30.15,NNW,342,4.0,9.0,98,0.00,,,0.26,meteohub,2013-12-07 10:13:00,
2013-12-07 05:18:00,35.4,34.9,30.16,NNW,328,6.0,8.0,98,0.00,,,0.26,meteohub,2013-12-07 10:18:00,
2013-12-07 05:23:00,35.4,34.7,30.16,NNW,328,3.0,8.0,97,0.00,,,0.26,meteohub,2013-12-07 10:23:00,
2013-12-07 05:28:00,35.6,34.9,30.16,NNW,346,2.0,8.0,97,0.00,,,0.26,meteohub,2013-12-07 10:28:00,
2013-12-07 05:33:00,35.6,34.9,30.17,NW,320,0.0,8.0,97,0.00,,,0.26,meteohub,2013-12-07 10:33:00,
2013-12-07 05:38:00,35.6,34.9,30.17,NNW,342,3.0,8.0,97,0.00,,,0.26,meteohub,2013-12-07 10:38:00,
2013-12-07 05:43:00,35.6,34.9,30.17,NNW,330,3.0,8.0,97,0.00,,,0.26,meteohub,2013-12-07 10:43:00,
2013-12-07 05:48:00,35.8,35.1,30.17,NW,325,2.0,5.0,97,0.00,,,0.26,meteohub,2013-12-07 10:48:00,
2013-12-07 05:53:00,35.8,35.1,30.17,NNE,12,3.0,5.0,97,0.00,,,0.26,meteohub,2013-12-07 10:53:00,
2013-12-07 05:58:00,35.8,35.1,30.17,NNW,348,1.0,5.0,97,0.00,,,0.26,meteohub,2013-12-07 10:58:00,
2013-12-07 06:03:00,35.8,35.1,30.17,North,359,4.0,5.0,97,0.00,,,0.26,meteohub,2013-12-07 11:03:00,
2013-12-07 06:08:00,35.8,35.1,30.18,NW,325,2.0,5.0,97,0.00,,,0.26,meteohub,2013-12-07 11:08:00,
2013-12-07 06:13:00,35.8,35.1,30.18,North,356,1.0,5.0,97,0.00,,,0.26,meteohub,2013-12-07 11:13:00,
2013-12-07 06:18:00,36.0,35.4,30.18,NNW,333,2.0,5.0,98,0.00,,,0.26,meteohub,2013-12-07 11:18:00,
2013-12-07 06:23:00,36.0,35.2,30.18,NNW,346,2.0,4.0,97,0.00,,,0.26,meteohub,2013-12-07 11:23:00,
2013-12-07 06:28:00,36.0,35.4,30.18,NW,324,2.0,4.0,98,0.00,,,0.26,meteohub,2013-12-07 11:28:00,
2013-12-07 06:33:00,36.0,35.4,30.18,NNW,338,4.0,4.0,98,0.00,,,0.26,meteohub,2013-12-07 11:33:00,
2013-12-07 06:38:00,36.0,35.4,30.19,NNW,332,2.0,5.0,98,0.00,,,0.26,meteohub,2013-12-07 11:38:00,
2013-12-07 06:43:00,36.0,35.2,30.19,NNW,338,3.0,7.0,97,0.00,,,0.26,meteohub,2013-12-07 11:43:00,
2013-12-07 06:48:00,36.0,35.2,30.19,NNW,336,7.0,7.0,97,0.00,,,0.26,meteohub,2013-12-07 11:48:00,
2013-12-07 06:53:00,36.0,34.9,30.19,NW,322,7.0,9.0,96,0.00,,,0.26,meteohub,2013-12-07 11:53:00,
2013-12-07 06:58:00,36.0,34.9,30.19,NW,319,4.0,11.0,96,0.00,,,0.26,meteohub,2013-12-07 11:58:00,
2013-12-07 07:04:00,36.0,34.9,30.19,NNW,342,9.0,11.0,96,0.00,,,0.26,meteohub,2013-12-07 12:04:00,
2013-12-07 07:09:00,36.0,34.9,30.19,NW,316,4.0,10.0,96,0.00,,,0.26,meteohub,2013-12-07 12:09:00,
2013-12-07 07:14:00,35.8,34.5,30.19,WNW,298,5.0,11.0,95,0.00,,,0.26,meteohub,2013-12-07 12:14:00,
2013-12-07 07:19:00,35.8,34.5,30.20,NW,319,3.0,11.0,95,0.00,,,0.26,meteohub,2013-12-07 12:19:00,
2013-12-07 07:24:00,35.8,34.7,30.20,NNW,333,5.0,8.0,96,0.00,,,0.26,meteohub,2013-12-07 12:24:00,
2013-12-07 07:29:00,35.8,34.5,30.20,NW,318,5.0,7.0,95,0.00,,,0.26,meteohub,2013-12-07 12:29:00,
2013-12-07 07:34:00,35.8,34.5,30.20,NNE,15,6.0,8.0,95,0.00,,,0.26,meteohub,2013-12-07 12:34:00,
2013-12-07 07:39:00,35.8,34.2,30.21,NW,321,3.0,8.0,94,0.00,,,0.26,meteohub,2013-12-07 12:39:00,
2013-12-07 07:44:00,35.8,34.2,30.21,NNW,338,2.0,10.0,94,0.00,,,0.26,meteohub,2013-12-07 12:44:00,
2013-12-07 07:49:00,35.8,34.2,30.22,NNW,328,5.0,10.0,94,0.00,,,0.26,meteohub,2013-12-07 12:49:00,
2013-12-07 07:54:00,35.8,34.2,30.22,NNW,347,5.0,9.0,94,0.00,,,0.26,meteohub,2013-12-07 12:54:00,
2013-12-07 07:59:00,35.8,34.2,30.23,NW,316,2.0,9.0,94,0.00,,,0.26,meteohub,2013-12-07 12:59:00,
2013-12-07 08:04:00,36.0,34.3,30.23,NW,309,5.0,9.0,94,0.00,,,0.26,meteohub,2013-12-07 13:04:00,
2013-12-07 08:09:00,36.0,34.2,30.23,NW,308,8.0,8.0,93,0.00,,,0.26,meteohub,2013-12-07 13:09:00,
2013-12-07 08:14:00,36.0,34.2,30.22,NW,308,8.0,8.0,93,0.00,,,0.26,meteohub,2013-12-07 13:14:00,
2013-12-07 08:19:00,36.0,34.2,30.22,North,11,4.0,10.0,93,0.00,,,0.26,meteohub,2013-12-07 13:19:00,
2013-12-07 08:24:00,36.0,34.2,30.22,NNW,348,4.0,10.0,93,0.00,,,0.26,meteohub,2013-12-07 13:24:00,
2013-12-07 08:29:00,36.1,34.3,30.23,NNW,330,4.0,10.0,93,0.00,,,0.26,meteohub,2013-12-07 13:29:00,
2013-12-07 08:34:00,36.3,34.2,30.23,NW,321,6.0,10.0,92,0.00,,,0.26,meteohub,2013-12-07 13:34:00,
2013-12-07 08:39:00,36.3,34.2,30.23,NNW,346,4.0,8.0,92,0.00,,,0.26,meteohub,2013-12-07 13:39:00,
2013-12-07 08:44:00,36.5,34.2,30.24,NNW,332,8.0,9.0,91,0.00,,,0.26,meteohub,2013-12-07 13:44:00,
2013-12-07 08:49:00,36.5,34.2,30.23,NNE,15,2.0,9.0,91,0.00,,,0.26,meteohub,2013-12-07 13:49:00,
2013-12-07 08:54:00,36.7,34.3,30.24,NNW,335,8.0,9.0,91,0.00,,,0.26,meteohub,2013-12-07 13:54:00,
2013-12-07 08:59:00,36.7,34.3,30.24,NNW,328,3.0,11.0,91,0.00,,,0.26,meteohub,2013-12-07 13:59:00,
2013-12-07 09:04:00,36.7,34.3,30.24,NNW,333,7.0,11.0,91,0.00,,,0.26,meteohub,2013-12-07 14:04:00,
2013-12-07 09:09:00,36.7,34.0,30.24,NNW,330,7.0,11.0,90,0.00,,,0.26,meteohub,2013-12-07 14:09:00,
2013-12-07 09:14:00,36.9,34.2,30.24,NNW,342,8.0,9.0,90,0.00,,,0.26,meteohub,2013-12-07 14:14:00,
2013-12-07 09:19:00,37.0,34.3,30.25,WNW,300,3.0,11.0,90,0.00,,,0.26,meteohub,2013-12-07 14:19:00,
2013-12-07 09:24:00,37.4,34.7,30.25,NW,308,9.0,11.0,90,0.00,,,0.26,meteohub,2013-12-07 14:24:00,
2013-12-07 09:29:00,37.6,34.7,30.25,North,349,7.0,11.0,89,0.00,,,0.26,meteohub,2013-12-07 14:29:00,
2013-12-07 09:34:00,37.8,34.9,30.25,NNW,340,3.0,11.0,89,0.00,,,0.26,meteohub,2013-12-07 14:34:00,
2013-12-07 09:39:00,37.9,34.7,30.24,NNW,328,5.0,11.0,88,0.00,,,0.26,meteohub,2013-12-07 14:39:00,
2013-12-07 09:44:00,37.9,34.3,30.25,NNW,330,10.0,10.0,87,0.00,,,0.26,meteohub,2013-12-07 14:44:00,
2013-12-07 09:49:00,37.9,34.3,30.25,NNW,340,9.0,13.0,87,0.00,,,0.26,meteohub,2013-12-07 14:49:00,
2013-12-07 09:54:00,38.1,34.3,30.25,NNW,333,7.0,13.0,86,0.00,,,0.26,meteohub,2013-12-07 14:54:00,
2013-12-07 09:59:00,38.1,33.8,30.25,NNW,336,11.0,13.0,84,0.00,,,0.26,meteohub,2013-12-07 14:59:00,
2013-12-07 10:04:00,38.3,34.0,30.24,NW,310,5.0,14.0,84,0.00,,,0.26,meteohub,2013-12-07 15:04:00,
2013-12-07 10:09:00,38.5,34.2,30.25,NW,322,8.0,14.0,84,0.00,,,0.26,meteohub,2013-12-07 15:09:00,
2013-12-07 10:14:00,38.5,33.8,30.25,NW,318,6.0,14.0,83,0.00,,,0.26,meteohub,2013-12-07 15:14:00,
2013-12-07 10:19:00,38.7,33.6,30.24,NNW,345,4.0,14.0,82,0.00,,,0.26,meteohub,2013-12-07 15:19:00,
2013-12-07 10:24:00,38.7,33.3,30.24,NW,314,10.0,14.0,81,0.00,,,0.26,meteohub,2013-12-07 15:24:00,
2013-12-07 10:29:00,38.8,33.8,30.25,NW,316,5.0,14.0,82,0.00,,,0.26,meteohub,2013-12-07 15:29:00,
2013-12-07 10:34:00,39.4,34.0,30.24,NW,326,10.0,13.0,81,0.00,,,0.26,meteohub,2013-12-07 15:34:00,
2013-12-07 10:39:00,39.4,34.3,30.24,NW,319,7.0,13.0,82,0.00,,,0.26,meteohub,2013-12-07 15:39:00,
2013-12-07 10:44:00,39.4,33.8,30.24,NNW,344,8.0,11.0,80,0.00,,,0.26,meteohub,2013-12-07 15:44:00,
2013-12-07 10:49:00,39.6,33.6,30.24,North,352,10.0,16.0,79,0.00,,,0.26,meteohub,2013-12-07 15:49:00,
2013-12-07 10:54:00,39.6,33.3,30.24,WNW,287,6.0,16.0,78,0.00,,,0.26,meteohub,2013-12-07 15:54:00,
2013-12-07 10:59:00,39.6,32.9,30.24,NW,324,6.0,16.0,77,0.00,,,0.26,meteohub,2013-12-07 15:59:00,
2013-12-07 11:04:00,39.9,32.7,30.24,NNW,333,10.0,12.0,75,0.00,,,0.26,meteohub,2013-12-07 16:04:00,
2013-12-07 11:09:00,40.3,32.4,30.24,NW,325,9.0,15.0,73,0.00,,,0.26,meteohub,2013-12-07 16:09:00,
2013-12-07 11:14:00,40.5,32.9,30.24,NW,309,11.0,18.0,74,0.00,,,0.26,meteohub,2013-12-07 16:14:00,
2013-12-07 11:19:00,40.5,32.5,30.24,North,0,11.0,18.0,73,0.00,,,0.26,meteohub,2013-12-07 16:19:00,
2013-12-07 11:24:00,40.6,32.4,30.24,NNW,328,15.0,18.0,72,0.00,,,0.26,meteohub,2013-12-07 16:24:00,
2013-12-07 11:29:00,40.5,32.5,30.24,NW,308,8.0,17.0,73,0.00,,,0.26,meteohub,2013-12-07 16:29:00,
2013-12-07 11:34:00,40.5,32.2,30.24,NNW,330,8.0,17.0,72,0.00,,,0.26,meteohub,2013-12-07 16:34:00,
2013-12-07 11:40:00,40.3,31.6,30.24,NW,323,7.0,16.0,71,0.00,,,0.26,meteohub,2013-12-07 16:40:00,
2013-12-07 11:45:00,40.3,31.3,30.24,NNW,340,6.0,16.0,70,0.00,,,0.26,meteohub,2013-12-07 16:45:00,
2013-12-07 11:50:00,40.3,31.6,30.24,WNW,295,11.0,16.0,71,0.00,,,0.26,meteohub,2013-12-07 16:50:00,
2013-12-07 11:55:00,40.5,31.8,30.24,NW,308,7.0,16.0,71,0.00,,,0.26,meteohub,2013-12-07 16:55:00,
2013-12-07 12:00:00,40.1,31.1,30.24,NNW,340,15.0,16.0,70,0.00,,,0.26,meteohub,2013-12-07 17:00:00,
2013-12-07 12:05:00,39.7,30.0,30.24,NNW,348,11.0,14.0,68,0.00,,,0.26,meteohub,2013-12-07 17:05:00,
2013-12-07 12:10:00,39.6,29.8,30.24,NW,318,13.0,20.0,68,0.00,,,0.26,meteohub,2013-12-07 17:10:00,
2013-12-07 12:15:00,39.4,30.0,30.25,NW,322,6.0,20.0,69,0.00,,,0.26,meteohub,2013-12-07 17:15:00,
2013-12-07 12:20:00,39.2,29.8,30.25,NNW,333,6.0,19.0,69,0.00,,,0.26,meteohub,2013-12-07 17:20:00,
2013-12-07 12:25:00,39.0,30.0,30.24,NNW,340,8.0,19.0,70,0.00,,,0.26,meteohub,2013-12-07 17:25:00,
2013-12-07 12:30:00,39.4,31.1,30.25,WNW,285,7.0,17.0,72,0.00,,,0.26,meteohub,2013-12-07 17:30:00,
2013-12-07 12:35:00,39.4,30.4,30.25,NW,325,11.0,18.0,70,0.00,,,0.26,meteohub,2013-12-07 17:35:00,
2013-12-07 12:40:00,39.4,30.4,30.25,NNW,335,14.0,18.0,70,0.00,,,0.26,meteohub,2013-12-07 17:40:00,
2013-12-07 12:45:00,39.2,30.2,30.25,NNW,333,16.0,18.0,70,0.00,,,0.26,meteohub,2013-12-07 17:45:00,
2013-12-07 12:50:00,39.0,30.0,30.25,NNW,333,8.0,18.0,70,0.00,,,0.26,meteohub,2013-12-07 17:50:00,
2013-12-07 12:55:00,39.4,30.4,30.25,WNW,296,9.0,20.0,70,0.00,,,0.26,meteohub,2013-12-07 17:55:00,
2013-12-07 13:00:00,39.6,30.2,30.25,NW,308,13.0,20.0,69,0.00,,,0.26,meteohub,2013-12-07 18:00:00,
2013-12-07 13:05:00,39.6,30.2,30.25,NNW,340,8.0,20.0,69,0.00,,,0.26,meteohub,2013-12-07 18:05:00,
2013-12-07 13:10:00,39.6,30.6,30.25,NW,304,2.0,20.0,70,0.00,,,0.26,meteohub,2013-12-07 18:10:00,
2013-12-07 13:15:00,39.7,30.7,30.25,NW,304,6.0,20.0,70,0.00,,,0.26,meteohub,2013-12-07 18:15:00,
2013-12-07 13:20:00,39.9,30.6,30.25,WNW,293,11.0,18.0,69,0.00,,,0.26,meteohub,2013-12-07 18:20:00,
2013-12-07 13:25:00,39.7,30.0,30.25,NNW,342,9.0,18.0,68,0.00,,,0.26,meteohub,2013-12-07 18:25:00,
2013-12-07 13:30:00,39.4,29.7,30.25,NW,315,15.0,18.0,68,0.00,,,0.26,meteohub,2013-12-07 18:30:00,
2013-12-07 13:35:00,38.8,29.5,30.25,West,271,6.0,18.0,69,0.00,,,0.26,meteohub,2013-12-07 18:35:00,
2013-12-07 13:40:00,38.8,29.8,30.25,NW,320,11.0,20.0,70,0.00,,,0.26,meteohub,2013-12-07 18:40:00,
2013-12-07 13:45:00,39.0,30.0,30.25,NNW,330,16.0,20.0,70,0.00,,,0.26,meteohub,2013-12-07 18:45:00,
2013-12-07 13:50:00,38.7,29.7,30.25,NNW,340,16.0,20.0,70,0.00,,,0.26,meteohub,2013-12-07 18:50:00,
2013-12-07 13:55:00,38.5,29.8,30.25,NW,318,9.0,20.0,71,0.00,,,0.26,meteohub,2013-12-07 18:55:00,
2013-12-07 14:00:00,38.8,30.6,30.26,NNW,347,14.0,19.0,72,0.00,,,0.26,meteohub,2013-12-07 19:00:00,
2013-12-07 14:05:00,39.0,30.4,30.26,NW,308,9.0,19.0,71,0.00,,,0.26,meteohub,2013-12-07 19:05:00,
2013-12-07 14:10:00,38.8,29.8,30.25,NNW,333,11.0,19.0,70,0.00,,,0.26,meteohub,2013-12-07 19:10:00,
2013-12-07 14:15:00,39.2,30.6,30.26,NNW,342,13.0,22.0,71,0.00,,,0.26,meteohub,2013-12-07 19:15:00,
2013-12-07 14:20:00,39.0,30.4,30.26,NNW,338,7.0,22.0,71,0.00,,,0.26,meteohub,2013-12-07 19:20:00,
2013-12-07 14:25:00,39.2,30.9,30.27,NW,308,7.0,16.0,72,0.00,,,0.26,meteohub,2013-12-07 19:25:00,
2013-12-07 14:30:00,38.8,30.2,30.27,NNW,336,7.0,17.0,71,0.00,,,0.26,meteohub,2013-12-07 19:30:00,
2013-12-07 14:35:00,38.8,30.6,30.27,NNW,328,10.0,20.0,72,0.00,,,0.26,meteohub,2013-12-07 19:35:00,
2013-12-07 14:40:00,38.5,30.2,30.27,WNW,301,11.0,20.0,72,0.00,,,0.26,meteohub,2013-12-07 19:40:00,
2013-12-07 14:45:00,38.5,29.8,30.27,WNW,294,10.0,17.0,71,0.00,,,0.26,meteohub,2013-12-07 19:45:00,
2013-12-07 14:50:00,38.3,29.3,30.27,NNW,330,11.0,17.0,70,0.00,,,0.26,meteohub,2013-12-07 19:50:00,
2013-12-07 14:55:00,38.1,29.1,30.27,NNW,340,14.0,19.0,70,0.00,,,0.26,meteohub,2013-12-07 19:55:00,
2013-12-07 15:00:00,38.1,28.9,30.28,WNW,295,12.0,19.0,69,0.00,,,0.26,meteohub,2013-12-07 20:00:00,
2013-12-07 15:05:00,37.9,28.8,30.28,NNW,328,8.0,19.0,69,0.00,,,0.26,meteohub,2013-12-07 20:05:00,
2013-12-07 15:10:00,38.1,28.9,30.28,WNW,295,10.0,16.0,69,0.00,,,0.26,meteohub,2013-12-07 20:10:00,
2013-12-07 15:15:00,37.9,28.4,30.29,NNW,328,11.0,18.0,68,0.00,,,0.26,meteohub,2013-12-07 20:15:00,
2013-12-07 15:20:00,37.9,28.4,30.29,NNW,328,5.0,18.0,68,0.00,,,0.26,meteohub,2013-12-07 20:20:00,
2013-12-07 15:25:00,37.8,28.2,30.29,NW,316,13.0,18.0,68,0.00,,,0.26,meteohub,2013-12-07 20:25:00,
2013-12-07 15:30:00,37.6,28.0,30.29,NW,322,9.0,17.0,68,0.00,,,0.26,meteohub,2013-12-07 20:30:00,
2013-12-07 15:35:00,37.8,28.2,30.30,NW,314,8.0,15.0,68,0.00,,,0.26,meteohub,2013-12-07 20:35:00,
2013-12-07 15:40:00,37.8,26.6,30.30,NW,309,9.0,15.0,64,0.00,,,0.26,meteohub,2013-12-07 20:40:00,
2013-12-07 15:45:00,37.8,25.9,30.30,NW,321,9.0,16.0,62,0.00,,,0.26,meteohub,2013-12-07 20:45:00,
2013-12-07 15:50:00,37.8,26.2,30.30,NNW,342,2.0,16.0,63,0.00,,,0.26,meteohub,2013-12-07 20:50:00,
2013-12-07 15:55:00,37.6,26.1,30.31,NW,304,2.0,16.0,63,0.00,,,0.26,meteohub,2013-12-07 20:55:00,
2013-12-07 16:00:00,37.6,26.1,30.31,NNW,330,4.0,13.0,63,0.00,,,0.26,meteohub,2013-12-07 21:00:00,
2013-12-07 16:05:00,37.2,25.7,30.31,WNW,298,3.0,10.0,63,0.00,,,0.26,meteohub,2013-12-07 21:05:00,
2013-12-07 16:10:00,37.0,26.1,30.31,WNW,301,8.0,13.0,64,0.00,,,0.26,meteohub,2013-12-07 21:10:00,
2013-12-07 16:15:00,36.9,26.2,30.32,North,354,3.0,13.0,65,0.00,,,0.26,meteohub,2013-12-07 21:15:00,
2013-12-07 16:20:00,36.7,26.1,30.32,NW,304,3.0,10.0,65,0.00,,,0.26,meteohub,2013-12-07 21:20:00,
2013-12-07 16:25:00,36.5,26.2,30.32,WNW,288,4.0,10.0,66,0.00,,,0.26,meteohub,2013-12-07 21:25:00,
2013-12-07 16:30:00,36.3,26.1,30.32,NW,311,5.0,8.0,66,0.00,,,0.26,meteohub,2013-12-07 21:30:00,
2013-12-07 16:35:00,36.1,26.2,30.33,WNW,300,2.0,8.0,67,0.00,,,0.26,meteohub,2013-12-07 21:35:00,
2013-12-07 16:41:00,36.0,26.4,30.33,WNW,302,0.0,8.0,68,0.00,,,0.26,meteohub,2013-12-07 21:41:00,
2013-12-07 16:46:00,35.8,26.2,30.33,WNW,295,1.0,6.0,68,0.00,,,0.26,meteohub,2013-12-07 21:46:00,
2013-12-07 16:51:00,35.4,26.2,30.34,WNW,298,0.0,5.0,69,0.00,,,0.26,meteohub,2013-12-07 21:51:00,
2013-12-07 16:56:00,35.2,26.1,30.34,WNW,287,0.0,2.0,69,0.00,,,0.26,meteohub,2013-12-07 21:56:00,
2013-12-07 17:01:00,34.9,26.4,30.34,WNW,290,0.0,1.0,71,0.00,,,0.26,meteohub,2013-12-07 22:01:00,
2013-12-07 17:06:00,34.7,26.6,30.35,WNW,290,3.0,3.0,72,0.00,,,0.26,meteohub,2013-12-07 22:06:00,
2013-12-07 17:11:00,34.5,26.1,30.35,NW,319,3.0,4.0,71,0.00,,,0.26,meteohub,2013-12-07 22:11:00,
2013-12-07 17:16:00,34.5,26.1,30.35,NNW,333,0.0,4.0,71,0.00,,,0.26,meteohub,2013-12-07 22:16:00,
2013-12-07 17:21:00,34.5,26.1,30.35,NNW,330,1.0,5.0,71,0.00,,,0.26,meteohub,2013-12-07 22:21:00,
2013-12-07 17:26:00,34.5,26.1,30.35,NW,319,0.0,5.0,71,0.00,,,0.26,meteohub,2013-12-07 22:26:00,
2013-12-07 17:31:00,34.3,26.2,30.35,NNW,342,0.0,4.0,72,0.00,,,0.26,meteohub,2013-12-07 22:31:00,
2013-12-07 17:36:00,34.2,26.4,30.36,NNW,342,0.0,3.0,73,0.00,,,0.26,meteohub,2013-12-07 22:36:00,
2013-12-07 17:41:00,33.8,26.4,30.36,NNW,330,0.0,1.0,74,0.00,,,0.26,meteohub,2013-12-07 22:41:00,
2013-12-07 17:46:00,33.4,26.4,30.36,NNW,330,0.0,1.0,75,0.00,,,0.26,meteohub,2013-12-07 22:46:00,
2013-12-07 17:51:00,33.1,26.6,30.36,NW,311,0.0,1.0,77,0.00,,,0.26,meteohub,2013-12-07 22:51:00,
2013-12-07 17:56:00,32.5,26.1,30.36,NW,304,0.0,1.0,77,0.00,,,0.26,meteohub,2013-12-07 22:56:00,
2013-12-07 18:01:00,32.4,26.2,30.37,WNW,284,0.0,1.0,78,0.00,,,0.26,meteohub,2013-12-07 23:01:00,
2013-12-07 18:06:00,32.4,26.2,30.37,WNW,302,0.0,2.0,78,0.00,,,0.26,meteohub,2013-12-07 23:06:00,
2013-12-07 18:11:00,32.2,26.4,30.38,WNW,286,0.0,2.0,79,0.00,,,0.26,meteohub,2013-12-07 23:11:00,
2013-12-07 18:16:00,32.2,26.4,30.38,West,263,0.0,1.0,79,0.00,,,0.26,meteohub,2013-12-07 23:16:00,
2013-12-07 18:21:00,31.6,26.4,30.38,West,263,0.0,1.0,81,0.00,,,0.26,meteohub,2013-12-07 23:21:00,
2013-12-07 18:26:00,31.5,26.2,30.38,SW,235,0.0,1.0,81,0.00,,,0.26,meteohub,2013-12-07 23:26:00,
2013-12-07 18:31:00,31.5,26.2,30.38,WSW,249,0.0,1.0,81,0.00,,,0.26,meteohub,2013-12-07 23:31:00,
2013-12-07 18:36:00,31.3,26.1,30.38,WSW,252,0.0,1.0,81,0.00,,,0.26,meteohub,2013-12-07 23:36:00,
2013-12-07 18:41:00,31.6,27.9,30.39,WSW,252,0.0,1.0,86,0.00,,,0.26,meteohub,2013-12-07 23:41:00,
2013-12-07 18:46:00,31.8,26.6,30.39,West,280,1.0,1.0,81,0.00,,,0.26,meteohub,2013-12-07 23:46:00,
2013-12-07 18:51:00,31.3,26.1,30.39,West,268,0.0,2.0,81,0.00,,,0.26,meteohub,2013-12-07 23:51:00,
2013-12-07 18:56:00,31.3,26.1,30.40,WNW,290,0.0,2.0,81,0.00,,,0.26,meteohub,2013-12-07 23:56:00,
2013-12-07 19:01:00,31.3,26.1,30.40,West,273,0.0,2.0,81,0.00,,,0.26,meteohub,2013-12-08 00:01:00,
2013-12-07 19:06:00,31.3,25.9,30.40,WSW,253,0.0,2.0,80,0.00,,,0.26,meteohub,2013-12-08 00:06:00,
2013-12-07 19:11:00,31.3,25.9,30.41,West,264,0.0,2.0,80,0.00,,,0.26,meteohub,2013-12-08 00:11:00,
2013-12-07 19:16:00,31.5,25.7,30.41,West,271,2.0,2.0,79,0.00,,,0.26,meteohub,2013-12-08 00:16:00,
2013-12-07 19:21:00,31.5,26.1,30.41,WNW,283,0.0,2.0,80,0.00,,,0.26,meteohub,2013-12-08 00:21:00,
2013-12-07 19:26:00,31.5,26.1,30.41,WNW,300,1.0,3.0,80,0.00,,,0.26,meteohub,2013-12-08 00:26:00,
2013-12-07 19:31:00,31.6,26.2,30.41,WNW,295,1.0,4.0,80,0.00,,,0.26,meteohub,2013-12-08 00:31:00,
2013-12-07 19:36:00,31.8,25.7,30.41,NW,307,0.0,4.0,78,0.00,,,0.26,meteohub,2013-12-08 00:36:00,
2013-12-07 19:41:00,32.2,25.7,30.41,WNW,291,6.0,6.0,77,0.00,,,0.26,meteohub,2013-12-08 00:41:00,
2013-12-07 19:46:00,32.4,25.3,30.41,NNW,334,6.0,7.0,75,0.00,,,0.26,meteohub,2013-12-08 00:46:00,
2013-12-07 19:51:00,32.5,25.5,30.42,NW,318,3.0,9.0,75,0.00,,,0.26,meteohub,2013-12-08 00:51:00,
2013-12-07 19:56:00,32.5,25.2,30.42,WNW,301,4.0,9.0,74,0.00,,,0.26,meteohub,2013-12-08 00:56:00,
2013-12-07 20:01:00,32.5,25.5,30.42,WNW,300,3.0,9.0,75,0.00,,,0.26,meteohub,2013-12-08 01:01:00,
2013-12-07 20:06:00,32.5,25.2,30.42,NW,318,2.0,8.0,74,0.00,,,0.26,meteohub,2013-12-08 01:06:00,
2013-12-07 20:11:00,32.4,25.3,30.42,NW,318,6.0,7.0,75,0.00,,,0.26,meteohub,2013-12-08 01:11:00,
2013-12-07 20:16:00,32.4,25.3,30.42,NW,307,6.0,7.0,75,0.00,,,0.26,meteohub,2013-12-08 01:16:00,
2013-12-07 20:21:00,32.2,25.2,30.42,NW,305,5.0,7.0,75,0.00,,,0.26,meteohub,2013-12-08 01:21:00,
2013-12-07 20:26:00,32.2,25.2,30.43,West,281,4.0,8.0,75,0.00,,,0.26,meteohub,2013-12-08 01:26:00,
2013-12-07 20:31:00,32.2,25.2,30.43,WNW,294,2.0,8.0,75,0.00,,,0.26,meteohub,2013-12-08 01:31:00,
2013-12-07 20:36:00,32.0,25.3,30.43,WNW,302,2.0,8.0,76,0.00,,,0.26,meteohub,2013-12-08 01:36:00,
2013-12-07 20:41:00,31.8,25.2,30.43,WNW,302,7.0,8.0,76,0.00,,,0.26,meteohub,2013-12-08 01:41:00,
2013-12-07 20:46:00,31.8,25.2,30.43,WNW,292,6.0,7.0,76,0.00,,,0.26,meteohub,2013-12-08 01:46:00,
2013-12-07 20:51:00,31.6,25.0,30.43,WNW,294,5.0,7.0,76,0.00,,,0.26,meteohub,2013-12-08 01:51:00,
2013-12-07 20:56:00,31.8,25.2,30.43,WNW,294,7.0,9.0,76,0.00,,,0.26,meteohub,2013-12-08 01:56:00,
2013-12-07 21:01:00,31.6,25.0,30.44,NW,310,7.0,9.0,76,0.00,,,0.26,meteohub,2013-12-08 02:01:00,
2013-12-07 21:06:00,31.6,25.0,30.44,NW,307,3.0,9.0,76,0.00,,,0.26,meteohub,2013-12-08 02:06:00,
2013-12-07 21:11:00,31.6,25.0,30.44,WNW,302,5.0,9.0,76,0.00,,,0.26,meteohub,2013-12-08 02:11:00,
2013-12-07 21:16:00,31.5,25.2,30.44,NW,310,3.0,8.0,77,0.00,,,0.26,meteohub,2013-12-08 02:16:00,
2013-12-07 21:21:00,31.5,25.2,30.44,WNW,298,8.0,8.0,77,0.00,,,0.26,meteohub,2013-12-08 02:21:00,
2013-12-07 21:26:00,31.5,25.2,30.45,West,278,4.0,8.0,77,0.00,,,0.26,meteohub,2013-12-08 02:26:00,
2013-12-07 21:31:00,31.3,25.0,30.45,WNW,300,3.0,9.0,77,0.00,,,0.26,meteohub,2013-12-08 02:31:00,
2013-12-07 21:36:00,31.3,25.0,30.45,WNW,298,7.0,9.0,77,0.00,,,0.26,meteohub,2013-12-08 02:36:00,
2013-12-07 21:41:00,31.3,25.0,30.45,WNW,288,4.0,9.0,77,0.00,,,0.26,meteohub,2013-12-08 02:41:00,
2013-12-07 21:46:00,31.1,25.0,30.45,WNW,301,3.0,8.0,78,0.00,,,0.26,meteohub,2013-12-08 02:46:00,
2013-12-07 21:51:00,30.9,24.8,30.45,NW,308,3.0,8.0,78,0.00,,,0.26,meteohub,2013-12-08 02:51:00,
2013-12-07 21:56:00,30.9,24.8,30.45,WNW,302,2.0,7.0,78,0.00,,,0.26,meteohub,2013-12-08 02:56:00,
2013-12-07 22:02:00,30.7,24.6,30.45,NW,308,4.0,7.0,78,0.00,,,0.26,meteohub,2013-12-08 03:02:00,
2013-12-07 22:07:00,30.7,24.6,30.45,NNW,328,3.0,7.0,78,0.00,,,0.26,meteohub,2013-12-08 03:07:00,
2013-12-07 22:12:00,30.6,24.4,30.45,NW,305,6.0,7.0,78,0.00,,,0.26,meteohub,2013-12-08 03:12:00,
2013-12-07 22:17:00,30.6,24.4,30.46,NW,309,3.0,7.0,78,0.00,,,0.26,meteohub,2013-12-08 03:17:00,
2013-12-07 22:22:00,30.6,24.4,30.46,WNW,298,3.0,7.0,78,0.00,,,0.26,meteohub,2013-12-08 03:22:00,
2013-12-07 22:27:00,30.6,24.4,30.47,NNW,328,4.0,7.0,78,0.00,,,0.26,meteohub,2013-12-08 03:27:00,
2013-12-07 22:32:00,30.6,24.4,30.47,WNW,298,2.0,7.0,78,0.00,,,0.26,meteohub,2013-12-08 03:32:00,
2013-12-07 22:37:00,30.6,24.4,30.47,NW,305,5.0,9.0,78,0.00,,,0.26,meteohub,2013-12-08 03:37:00,
2013-12-07 22:42:00,30.4,24.3,30.47,NW,308,5.0,9.0,78,0.00,,,0.26,meteohub,2013-12-08 03:42:00,
2013-12-07 22:47:00,30.4,24.6,30.47,WNW,284,2.0,9.0,79,0.00,,,0.26,meteohub,2013-12-08 03:47:00,
2013-12-07 22:52:00,30.2,24.4,30.47,NW,313,1.0,8.0,79,0.00,,,0.26,meteohub,2013-12-08 03:52:00,
2013-12-07 22:57:00,30.0,24.3,30.47,NW,310,4.0,8.0,79,0.00,,,0.26,meteohub,2013-12-08 03:57:00,
2013-12-07 23:02:00,30.0,24.3,30.48,NW,324,2.0,5.0,79,0.00,,,0.26,meteohub,2013-12-08 04:02:00,
2013-12-07 23:07:00,30.2,24.4,30.47,NNW,328,5.0,8.0,79,0.00,,,0.26,meteohub,2013-12-08 04:07:00,
2013-12-07 23:12:00,30.0,24.3,30.47,NW,308,3.0,8.0,79,0.00,,,0.26,meteohub,2013-12-08 04:12:00,
2013-12-07 23:17:00,30.0,24.3,30.48,NW,312,6.0,8.0,79,0.00,,,0.26,meteohub,2013-12-08 04:17:00,
2013-12-07 23:22:00,30.0,24.3,30.48,NW,305,5.0,8.0,79,0.00,,,0.26,meteohub,2013-12-08 04:22:00,
2013-12-07 23:27:00,30.0,24.3,30.49,NW,314,3.0,8.0,79,0.00,,,0.26,meteohub,2013-12-08 04:27:00,
2013-12-07 23:32:00,30.0,24.1,30.48,WNW,291,5.0,8.0,78,0.00,,,0.26,meteohub,2013-12-08 04:32:00,
2013-12-07 23:37:00,29.8,24.1,30.49,West,274,3.0,8.0,79,0.00,,,0.26,meteohub,2013-12-08 04:37:00,
2013-12-07 23:42:00,29.8,24.1,30.49,NW,319,3.0,10.0,79,0.00,,,0.26,meteohub,2013-12-08 04:42:00,
2013-12-07 23:47:00,29.8,24.1,30.49,WNW,295,2.0,10.0,79,0.00,,,0.26,meteohub,2013-12-08 04:47:00,
2013-12-07 23:52:00,29.8,24.1,30.49,NNW,328,4.0,10.0,79,0.00,,,0.26,meteohub,2013-12-08 04:52:00,
2013-12-07 23:57:00,29.8,23.9,30.49,NW,320,6.0,8.0,78,0.00,,,0.26,meteohub,2013-12-08 04:57:00,